< < Back
Terminal Aerodrome Forecast


Current Version              Previous Versions:   1  2  3  4  5  6  7  8  9  

Terminal Aerodrome Forecast

718
FTUS42 KILM 231700
TAFILM
TAF
KILM 231724Z 2318/2418 10008KT P6SM SCT025 BKN060
      TEMPO 2320/2324 VRB15KT 3SM SHRA BKN020
     FM240200 06003KT P6SM VCSH SCT018 OVC050
     FM240700 04007KT P6SM BKN018 BKN050 OVC100
     FM241300 05013KT P6SM BKN030 BKN100=



Latest METAR

139
SAUS70 KWBC 231900 RRC
MTRILM
METAR KILM 231853Z 08008KT 10SM FEW028 SCT035 29/24 A2991 RMK AO2 LTG
DSNT S AND W SLP126 T02940239


USA.gov is the U.S. government's official web portal to all federal, state and local government web resources and services.